sensor_id;sensor_type;location;lat;lon;timestamp;pressure;altitude;pressure_sealevel;temperature;humidity
12949;BME280;6539;49.476;8.484;2022-12-29T00:01:00;99980.38;;;11.48;65.40
12949;BME280;6539;49.476;8.484;2022-12-29T00:03:27;99974.31;;;11.57;66.15
12949;BME280;6539;49.476;8.484;2022-12-29T00:05:56;99977.41;;;11.59;66.54
12949;BME280;6539;49.476;8.484;2022-12-29T00:08:22;99973.03;;;11.61;67.15
12949;BME280;6539;49.476;8.484;2022-12-29T00:11:13;99971.94;;;11.78;68.07
12949;BME280;6539;49.476;8.484;2022-12-29T00:13:42;99974.91;;;11.87;67.95
12949;BME280;6539;49.476;8.484;2022-12-29T00:16:30;99964.81;;;12.00;67.85
12949;BME280;6539;49.476;8.484;2022-12-29T00:18:56;99962.75;;;12.04;68.01
12949;BME280;6539;49.476;8.484;2022-12-29T00:21:24;99967.13;;;12.02;68.32
12949;BME280;6539;49.476;8.484;2022-12-29T00:24:15;99958.09;;;12.01;69.04
12949;BME280;6539;49.476;8.484;2022-12-29T00:27:11;99966.66;;;12.07;68.92
12949;BME280;6539;49.476;8.484;2022-12-29T00:29:58;99964.25;;;12.09;69.30
12949;BME280;6539;49.476;8.484;2022-12-29T00:32:42;99964.25;;;12.09;69.84
12949;BME280;6539;49.476;8.484;2022-12-29T00:35:31;99968.13;;;12.11;69.74
12949;BME280;6539;49.476;8.484;2022-12-29T00:38:05;99952.38;;;12.12;69.51
12949;BME280;6539;49.476;8.484;2022-12-29T00:40:50;99964.09;;;12.16;69.48
12949;BME280;6539;49.476;8.484;2022-12-29T00:43:36;99964.09;;;12.16;70.28
12949;BME280;6539;49.476;8.484;2022-12-29T00:46:21;99960.91;;;12.17;69.85
12949;BME280;6539;49.476;8.484;2022-12-29T00:48:49;99963.75;;;12.14;70.01
12949;BME280;6539;49.476;8.484;2022-12-29T00:51:35;99966.41;;;12.17;69.47
12949;BME280;6539;49.476;8.484;2022-12-29T00:54:03;99963.75;;;12.14;69.48
12949;BME280;6539;49.476;8.484;2022-12-29T00:56:29;99962.03;;;12.20;68.35
12949;BME280;6539;49.476;8.484;2022-12-29T00:58:55;99965.56;;;12.20;67.79
12949;BME280;6539;49.476;8.484;2022-12-29T01:01:20;99972.97;;;12.23;66.97
12949;BME280;6539;49.476;8.484;2022-12-29T01:03:46;99968.97;;;12.08;66.80
12949;BME280;6539;49.476;8.484;2022-12-29T01:06:15;99963.91;;;12.07;66.21
12949;BME280;6539;49.476;8.484;2022-12-29T01:08:41;99962.06;;;12.00;66.06
12949;BME280;6539;49.476;8.484;2022-12-29T01:11:12;99958.88;;;12.02;66.01
12949;BME280;6539;49.476;8.484;2022-12-29T01:13:39;99955.69;;;12.03;66.55
12949;BME280;6539;49.476;8.484;2022-12-29T01:16:07;99964.38;;;12.02;67.32
12949;BME280;6539;49.476;8.484;2022-12-29T01:18:37;99957.59;;;12.06;66.97
12949;BME280;6539;49.476;8.484;2022-12-29T01:21:06;99945.34;;;12.11;67.38
12949;BME280;6539;49.476;8.484;2022-12-29T01:23:33;99954.78;;;12.10;67.09
12949;BME280;6539;49.476;8.484;2022-12-29T01:26:14;99950.56;;;12.05;67.91
12949;BME280;6539;49.476;8.484;2022-12-29T01:28:41;99948.09;;;12.11;68.06
12949;BME280;6539;49.476;8.484;2022-12-29T01:31:12;99952.38;;;12.12;68.93
12949;BME280;6539;49.476;8.484;2022-12-29T01:33:38;99955.06;;;12.15;69.17
12949;BME280;6539;49.476;8.484;2022-12-29T01:36:11;99956.09;;;12.21;69.68
12949;BME280;6539;49.476;8.484;2022-12-29T01:38:38;99952.91;;;12.23;70.76
12949;BME280;6539;49.476;8.484;2022-12-29T01:41:05;99948.09;;;12.27;70.45
12949;BME280;6539;49.476;8.484;2022-12-29T01:46:39;99941.16;;;12.39;73.40
12949;BME280;6539;49.476;8.484;2022-12-29T01:51:38;99952.94;;;12.39;74.12
12949;BME280;6539;49.476;8.484;2022-12-29T01:54:16;99948.63;;;12.38;74.59
12949;BME280;6539;49.476;8.484;2022-12-29T01:56:48;99947.00;;;12.41;74.79
12949;BME280;6539;49.476;8.484;2022-12-29T01:59:22;99954.94;;;12.39;74.67
12949;BME280;6539;49.476;8.484;2022-12-29T02:01:54;99945.19;;;12.34;75.08
12949;BME280;6539;49.476;8.484;2022-12-29T02:04:23;99941.16;;;12.22;75.95
12949;BME280;6539;49.476;8.484;2022-12-29T02:07:00;99953.44;;;12.34;75.69
12949;BME280;6539;49.476;8.484;2022-12-29T02:09:30;99939.34;;;12.32;75.55
12949;BME280;6539;49.476;8.484;2022-12-29T02:12:00;99938.84;;;12.37;75.67
12949;BME280;6539;49.476;8.484;2022-12-29T02:14:29;99943.56;;;12.37;75.92
12949;BME280;6539;49.476;8.484;2022-12-29T02:17:23;99951.03;;;12.36;75.85
12949;BME280;6539;49.476;8.484;2022-12-29T02:24:17;99949.56;;;12.32;75.83
12949;BME280;6539;49.476;8.484;2022-12-29T02:35:46;99941.66;;;12.34;75.55
12949;BME280;6539;49.476;8.484;2022-12-29T02:38:56;99938.22;;;12.30;76.22
12949;BME280;6539;49.476;8.484;2022-12-29T02:45:12;99922.75;;;12.36;75.55
12949;BME280;6539;49.476;8.484;2022-12-29T02:50:47;99913.44;;;12.30;75.76
12949;BME280;6539;49.476;8.484;2022-12-29T02:53:17;99920.84;;;12.33;75.76
12949;BME280;6539;49.476;8.484;2022-12-29T02:56:06;99924.81;;;12.32;75.84
12949;BME280;6539;49.476;8.484;2022-12-29T02:58:32;99918.94;;;12.30;76.37
12949;BME280;6539;49.476;8.484;2022-12-29T03:13:10;99905.03;;;12.20;76.39
12949;BME280;6539;49.476;8.484;2022-12-29T03:16:30;99890.50;;;12.20;76.38
12949;BME280;6539;49.476;8.484;2022-12-29T03:19:26;99898.31;;;12.21;76.10
12949;BME280;6539;49.476;8.484;2022-12-29T03:22:05;99875.16;;;12.19;76.27
12949;BME280;6539;49.476;8.484;2022-12-29T03:24:59;99872.41;;;12.19;76.32
12949;BME280;6539;49.476;8.484;2022-12-29T03:27:31;99871.13;;;12.23;75.81
12949;BME280;6539;49.476;8.484;2022-12-29T03:30:07;99860.81;;;12.27;75.82
12949;BME280;6539;49.476;8.484;2022-12-29T03:33:07;99870.00;;;12.21;75.91
12949;BME280;6539;49.476;8.484;2022-12-29T03:35:38;99867.25;;;12.21;76.00
12949;BME280;6539;49.476;8.484;2022-12-29T03:38:46;99864.44;;;12.24;75.75
12949;BME280;6539;49.476;8.484;2022-12-29T03:41:20;99859.78;;;12.21;75.56
12949;BME280;6539;49.476;8.484;2022-12-29T03:43:48;99870.19;;;12.30;74.85
12949;BME280;6539;49.476;8.484;2022-12-29T03:46:14;99865.47;;;12.31;74.70
12949;BME280;6539;49.476;8.484;2022-12-29T03:48:40;99851.19;;;12.36;74.01
12949;BME280;6539;49.476;8.484;2022-12-29T03:51:07;99842.50;;;12.37;73.90
12949;BME280;6539;49.476;8.484;2022-12-29T03:53:33;99842.41;;;12.41;73.26
12949;BME280;6539;49.476;8.484;2022-12-29T03:56:01;99837.19;;;12.46;72.94
12949;BME280;6539;49.476;8.484;2022-12-29T03:58:27;99829.31;;;12.45;72.30
12949;BME280;6539;49.476;8.484;2022-12-29T04:00:55;99832.34;;;12.50;71.57
12949;BME280;6539;49.476;8.484;2022-12-29T04:03:23;99830.44;;;12.47;71.87
12949;BME280;6539;49.476;8.484;2022-12-29T04:05:48;99838.28;;;12.49;71.46
12949;BME280;6539;49.476;8.484;2022-12-29T04:08:14;99828.81;;;12.50;71.38
12949;BME280;6539;49.476;8.484;2022-12-29T04:10:43;99833.97;;;12.48;71.49
12949;BME280;6539;49.476;8.484;2022-12-29T04:13:11;99837.06;;;12.50;71.31
12949;BME280;6539;49.476;8.484;2022-12-29T04:15:39;99834.66;;;12.52;70.97
12949;BME280;6539;49.476;8.484;2022-12-29T04:18:08;99828.91;;;12.46;71.00
12949;BME280;6539;49.476;8.484;2022-12-29T04:20:33;99830.38;;;12.51;70.80
12949;BME280;6539;49.476;8.484;2022-12-29T04:23:17;99832.00;;;12.48;71.29
12949;BME280;6539;49.476;8.484;2022-12-29T04:25:46;99848.59;;;12.45;71.24
12949;BME280;6539;49.476;8.484;2022-12-29T04:28:17;99846.91;;;12.51;70.75
12949;BME280;6539;49.476;8.484;2022-12-29T04:30:44;99844.56;;;12.49;70.79
12949;BME280;6539;49.476;8.484;2022-12-29T04:33:09;99828.47;;;12.48;70.99
12949;BME280;6539;49.476;8.484;2022-12-29T04:35:36;99834.31;;;12.50;70.98
12949;BME280;6539;49.476;8.484;2022-12-29T04:38:02;99830.53;;;12.44;71.04
12949;BME280;6539;49.476;8.484;2022-12-29T04:40:30;99834.50;;;12.43;71.23
12949;BME280;6539;49.476;8.484;2022-12-29T04:42:58;99833.97;;;12.48;70.51
12949;BME280;6539;49.476;8.484;2022-12-29T04:45:24;99828.81;;;12.50;70.67
12949;BME280;6539;49.476;8.484;2022-12-29T04:47:50;99829.94;;;12.52;70.55
12949;BME280;6539;49.476;8.484;2022-12-29T04:50:16;99835.00;;;12.54;70.06
12949;BME280;6539;49.476;8.484;2022-12-29T04:52:44;99837.41;;;12.52;70.33
12949;BME280;6539;49.476;8.484;2022-12-29T04:55:10;99823.66;;;12.52;69.85
12949;BME280;6539;49.476;8.484;2022-12-29T04:57:36;99835.50;;;12.49;70.21
12949;BME280;6539;49.476;8.484;2022-12-29T05:00:03;99832.53;;;12.43;70.33
12949;BME280;6539;49.476;8.484;2022-12-29T05:02:30;99832.06;;;12.45;70.23
12949;BME280;6539;49.476;8.484;2022-12-29T05:04:55;99846.13;;;12.50;69.74
12949;BME280;6539;49.476;8.484;2022-12-29T05:07:21;99841.38;;;12.51;69.87
12949;BME280;6539;49.476;8.484;2022-12-29T05:09:47;99842.06;;;12.55;69.43
12949;BME280;6539;49.476;8.484;2022-12-29T05:12:15;99830.38;;;12.51;69.29
12949;BME280;6539;49.476;8.484;2022-12-29T05:14:41;99819.38;;;12.51;69.70
12949;BME280;6539;49.476;8.484;2022-12-29T05:17:07;99829.59;;;12.50;69.76
12949;BME280;6539;49.476;8.484;2022-12-29T05:19:33;99835.88;;;12.51;69.44
12949;BME280;6539;49.476;8.484;2022-12-29T05:22:01;99837.94;;;12.47;69.72
12949;BME280;6539;49.476;8.484;2022-12-29T05:24:26;99844.47;;;12.53;69.52
12949;BME280;6539;49.476;8.484;2022-12-29T05:26:52;99845.34;;;12.50;69.37
12949;BME280;6539;49.476;8.484;2022-12-29T05:29:18;99841.03;;;12.49;69.58
12949;BME280;6539;49.476;8.484;2022-12-29T05:31:44;99839.81;;;12.50;69.51
12949;BME280;6539;49.476;8.484;2022-12-29T05:34:15;99845.84;;;12.45;69.95
12949;BME280;6539;49.476;8.484;2022-12-29T05:36:44;99835.16;;;12.47;69.53
12949;BME280;6539;49.476;8.484;2022-12-29T05:39:09;99834.09;;;12.44;69.64
12949;BME280;6539;49.476;8.484;2022-12-29T05:41:35;99842.25;;;12.48;69.82
12949;BME280;6539;49.476;8.484;2022-12-29T05:44:01;99836.84;;;12.44;69.75
12949;BME280;6539;49.476;8.484;2022-12-29T05:46:30;99837.50;;;12.48;69.94
12949;BME280;6539;49.476;8.484;2022-12-29T05:48:56;99836.91;;;12.41;70.42
12949;BME280;6539;49.476;8.484;2022-12-29T05:51:22;99841.63;;;12.40;70.69
12949;BME280;6539;49.476;8.484;2022-12-29T05:53:50;99827.13;;;12.40;70.88
12949;BME280;6539;49.476;8.484;2022-12-29T05:56:21;99836.06;;;12.44;70.74
12949;BME280;6539;49.476;8.484;2022-12-29T05:58:49;99837.59;;;12.45;70.59
12949;BME280;6539;49.476;8.484;2022-12-29T06:01:17;99836.06;;;12.44;70.87
12949;BME280;6539;49.476;8.484;2022-12-29T06:03:45;99828.13;;;12.46;71.12
12949;BME280;6539;49.476;8.484;2022-12-29T06:06:15;99837.00;;;12.37;71.28
12949;BME280;6539;49.476;8.484;2022-12-29T06:08:43;99832.06;;;12.45;70.87
12949;BME280;6539;49.476;8.484;2022-12-29T06:11:12;99824.25;;;12.43;71.32
12949;BME280;6539;49.476;8.484;2022-12-29T06:13:38;99825.13;;;12.40;70.99
12949;BME280;6539;49.476;8.484;2022-12-29T06:16:04;99816.78;;;12.44;71.23
12949;BME280;6539;49.476;8.484;2022-12-29T06:18:35;99818.31;;;12.45;70.78
12949;BME280;6539;49.476;8.484;2022-12-29T06:21:05;99808.75;;;12.49;70.75
12949;BME280;6539;49.476;8.484;2022-12-29T06:23:33;99826.50;;;12.48;70.94
12949;BME280;6539;49.476;8.484;2022-12-29T06:26:03;99825.81;;;12.44;70.87
12949;BME280;6539;49.476;8.484;2022-12-29T06:28:31;99826.50;;;12.48;70.32
12949;BME280;6539;49.476;8.484;2022-12-29T06:31:00;99828.03;;;12.49;70.37
12949;BME280;6539;49.476;8.484;2022-12-29T06:33:32;99827.25;;;12.49;69.87
12949;BME280;6539;49.476;8.484;2022-12-29T06:36:00;99819.09;;;12.45;69.89
12949;BME280;6539;49.476;8.484;2022-12-29T06:38:28;99812.81;;;12.45;69.69
12949;BME280;6539;49.476;8.484;2022-12-29T06:40:56;99815.06;;;12.50;69.16
12949;BME280;6539;49.476;8.484;2022-12-29T06:43:24;99817.69;;;12.53;68.96
12949;BME280;6539;49.476;8.484;2022-12-29T06:45:52;99810.66;;;12.52;68.56
12949;BME280;6539;49.476;8.484;2022-12-29T06:48:22;99810.75;;;12.49;68.23
12949;BME280;6539;49.476;8.484;2022-12-29T06:50:51;99799.56;;;12.56;68.03
12949;BME280;6539;49.476;8.484;2022-12-29T06:53:17;99803.75;;;12.60;67.30
12949;BME280;6539;49.476;8.484;2022-12-29T06:55:45;99806.06;;;12.62;67.02
12949;BME280;6539;49.476;8.484;2022-12-29T06:58:13;99799.88;;;12.58;67.22
12949;BME280;6539;49.476;8.484;2022-12-29T07:00:38;99797.81;;;12.62;66.74
12949;BME280;6539;49.476;8.484;2022-12-29T07:03:05;99803.41;;;12.58;66.90
12949;BME280;6539;49.476;8.484;2022-12-29T07:05:33;99805.91;;;12.69;66.37
12949;BME280;6539;49.476;8.484;2022-12-29T07:07:59;99805.22;;;12.65;66.18
12949;BME280;6539;49.476;8.484;2022-12-29T07:10:28;99805.13;;;12.68;65.80
12949;BME280;6539;49.476;8.484;2022-12-29T07:12:54;99805.03;;;12.72;65.68
12949;BME280;6539;49.476;8.484;2022-12-29T07:15:20;99816.06;;;12.72;65.73
12949;BME280;6539;49.476;8.484;2022-12-29T07:17:46;99816.41;;;12.74;65.17
12949;BME280;6539;49.476;8.484;2022-12-29T07:20:14;99814.06;;;12.72;65.29
12949;BME280;6539;49.476;8.484;2022-12-29T07:22:42;99815.94;;;12.75;65.16
12949;BME280;6539;49.476;8.484;2022-12-29T07:25:10;99814.75;;;12.76;64.33
12949;BME280;6539;49.476;8.484;2022-12-29T07:27:36;99816.06;;;12.72;64.88
12949;BME280;6539;49.476;8.484;2022-12-29T07:30:04;99822.69;;;12.74;64.63
12949;BME280;6539;49.476;8.484;2022-12-29T07:32:34;99819.16;;;12.74;64.51
12949;BME280;6539;49.476;8.484;2022-12-29T07:35:00;99825.00;;;12.76;64.38
12949;BME280;6539;49.476;8.484;2022-12-29T07:37:25;99821.91;;;12.74;64.53
12949;BME280;6539;49.476;8.484;2022-12-29T07:39:54;99817.91;;;12.75;64.67
12949;BME280;6539;49.476;8.484;2022-12-29T07:42:19;99812.34;;;12.78;64.21
12949;BME280;6539;49.476;8.484;2022-12-29T07:44:45;99831.84;;;12.84;64.04
12949;BME280;6539;49.476;8.484;2022-12-29T07:47:11;99832.19;;;12.86;64.30
12949;BME280;6539;49.476;8.484;2022-12-29T07:49:36;99827.56;;;12.83;63.99
12949;BME280;6539;49.476;8.484;2022-12-29T07:52:02;99836.25;;;12.81;64.45
12949;BME280;6539;49.476;8.484;2022-12-29T07:54:30;99833.50;;;12.81;64.30
12949;BME280;6539;49.476;8.484;2022-12-29T07:56:56;99849.94;;;12.85;64.11
12949;BME280;6539;49.476;8.484;2022-12-29T07:59:23;99836.50;;;12.87;64.02
12949;BME280;6539;49.476;8.484;2022-12-29T08:01:51;99840.13;;;12.84;63.98
12949;BME280;6539;49.476;8.484;2022-12-29T08:04:19;99847.53;;;12.87;63.94
12949;BME280;6539;49.476;8.484;2022-12-29T08:06:47;99851.41;;;12.89;64.02
12949;BME280;6539;49.476;8.484;2022-12-29T08:09:13;99845.19;;;12.85;63.93
12949;BME280;6539;49.476;8.484;2022-12-29T08:11:41;99856.97;;;12.86;63.92
12949;BME280;6539;49.476;8.484;2022-12-29T08:14:08;99853.44;;;12.85;64.18
12949;BME280;6539;49.476;8.484;2022-12-29T08:16:36;99854.50;;;12.91;63.51
12949;BME280;6539;49.476;8.484;2022-12-29T08:19:02;99870.25;;;12.91;63.95
12949;BME280;6539;49.476;8.484;2022-12-29T08:21:29;99875.19;;;12.96;63.71
12949;BME280;6539;49.476;8.484;2022-12-29T08:23:57;99869.50;;;13.03;63.05
12949;BME280;6539;49.476;8.484;2022-12-29T08:26:24;99867.31;;;12.98;63.66
12949;BME280;6539;49.476;8.484;2022-12-29T08:28:53;99870.28;;;13.03;63.39
12949;BME280;6539;49.476;8.484;2022-12-29T08:31:23;99876.16;;;13.06;63.21
12949;BME280;6539;49.476;8.484;2022-12-29T08:33:49;99885.22;;;13.06;63.58
12949;BME280;6539;49.476;8.484;2022-12-29T08:36:16;99893.53;;;13.02;64.44
12949;BME280;6539;49.476;8.484;2022-12-29T08:38:44;99888.47;;;13.01;64.37
12949;BME280;6539;49.476;8.484;2022-12-29T08:41:09;99890.44;;;13.00;64.04
12949;BME280;6539;49.476;8.484;2022-12-29T08:43:40;99888.91;;;12.99;64.09
12949;BME280;6539;49.476;8.484;2022-12-29T08:46:05;99887.88;;;13.10;63.62
12949;BME280;6539;49.476;8.484;2022-12-29T08:48:36;99884.06;;;13.03;64.11
12949;BME280;6539;49.476;8.484;2022-12-29T08:51:02;99888.13;;;12.99;63.83
12949;BME280;6539;49.476;8.484;2022-12-29T08:53:28;99886.59;;;12.98;64.10
12949;BME280;6539;49.476;8.484;2022-12-29T08:55:59;99891.31;;;12.97;64.14
12949;BME280;6539;49.476;8.484;2022-12-29T08:58:26;99885.38;;;12.99;64.02
12949;BME280;6539;49.476;8.484;2022-12-29T09:00:54;99894.75;;;13.01;63.87
12949;BME280;6539;49.476;8.484;2022-12-29T09:03:21;99902.94;;;13.05;63.67
12949;BME280;6539;49.476;8.484;2022-12-29T09:05:52;99883.28;;;13.03;64.34
12949;BME280;6539;49.476;8.484;2022-12-29T09:08:22;99891.84;;;13.09;63.92
12949;BME280;6539;49.476;8.484;2022-12-29T09:10:48;99893.50;;;13.06;64.07
12949;BME280;6539;49.476;8.484;2022-12-29T09:13:18;99903.88;;;13.15;63.99
12949;BME280;6539;49.476;8.484;2022-12-29T09:15:57;99902.59;;;13.19;63.60
12949;BME280;6539;49.476;8.484;2022-12-29T09:18:28;99903.38;;;13.20;63.95
12949;BME280;6539;49.476;8.484;2022-12-29T09:21:01;99904.78;;;13.24;63.96
12949;BME280;6539;49.476;8.484;2022-12-29T09:23:31;99901.63;;;13.26;63.94
12949;BME280;6539;49.476;8.484;2022-12-29T09:26:00;99903.25;;;13.23;64.10
12949;BME280;6539;49.476;8.484;2022-12-29T09:28:28;99914.63;;;13.25;63.91
12949;BME280;6539;49.476;8.484;2022-12-29T09:30:56;99914.22;;;13.39;63.73
12949;BME280;6539;49.476;8.484;2022-12-29T09:33:25;99925.25;;;13.39;63.88
12949;BME280;6539;49.476;8.484;2022-12-29T09:35:57;99923.19;;;13.43;64.05
12949;BME280;6539;49.476;8.484;2022-12-29T09:38:26;99930.25;;;13.44;64.84
12949;BME280;6539;49.476;8.484;2022-12-29T09:41:02;99922.44;;;13.55;64.92
12949;BME280;6539;49.476;8.484;2022-12-29T09:44:05;99937.78;;;13.56;64.85
12949;BME280;6539;49.476;8.484;2022-12-29T09:46:44;99934.69;;;13.54;65.50
12949;BME280;6539;49.476;8.484;2022-12-29T09:52:04;99947.03;;;13.50;65.59
12949;BME280;6539;49.476;8.484;2022-12-29T09:54:44;99935.56;;;13.51;65.57
12949;BME280;6539;49.476;8.484;2022-12-29T09:57:30;99950.47;;;13.54;65.72
12949;BME280;6539;49.476;8.484;2022-12-29T10:00:06;99948.13;;;13.52;65.77
12949;BME280;6539;49.476;8.484;2022-12-29T10:02:48;99945.03;;;13.50;66.20
12949;BME280;6539;49.476;8.484;2022-12-29T10:05:38;99942.63;;;13.52;66.40
12949;BME280;6539;49.476;8.484;2022-12-29T10:14:32;99944.19;;;13.53;66.95
12949;BME280;6539;49.476;8.484;2022-12-29T10:17:10;99948.06;;;13.56;66.90
12949;BME280;6539;49.476;8.484;2022-12-29T10:20:00;99946.50;;;13.55;67.17
12949;BME280;6539;49.476;8.484;2022-12-29T10:25:26;99948.47;;;13.54;66.57
12949;BME280;6539;49.476;8.484;2022-12-29T10:28:01;99951.56;;;13.56;66.54
12949;BME280;6539;49.476;8.484;2022-12-29T10:30:29;99951.03;;;13.61;66.55
12949;BME280;6539;49.476;8.484;2022-12-29T10:33:04;99934.59;;;13.58;66.11
12949;BME280;6539;49.476;8.484;2022-12-29T10:35:39;99948.06;;;13.56;66.36
12949;BME280;6539;49.476;8.484;2022-12-29T10:38:28;99946.03;;;13.56;66.31
12949;BME280;6539;49.476;8.484;2022-12-29T10:43:53;99949.84;;;13.62;65.92
12949;BME280;6539;49.476;8.484;2022-12-29T10:46:25;99936.25;;;13.55;66.06
12949;BME280;6539;49.476;8.484;2022-12-29T10:48:58;99942.94;;;13.54;65.42
12949;BME280;6539;49.476;8.484;2022-12-29T10:51:32;99948.72;;;13.60;65.18
12949;BME280;6539;49.476;8.484;2022-12-29T10:54:18;99948.19;;;13.65;64.70
12949;BME280;6539;49.476;8.484;2022-12-29T10:56:53;99932.84;;;13.64;65.08
12949;BME280;6539;49.476;8.484;2022-12-29T10:59:26;99944.31;;;13.62;65.09
12949;BME280;6539;49.476;8.484;2022-12-29T11:04:57;99937.38;;;13.70;65.49
12949;BME280;6539;49.476;8.484;2022-12-29T11:07:28;99948.13;;;13.81;65.76
12949;BME280;6539;49.476;8.484;2022-12-29T11:10:15;99937.84;;;13.82;65.94
12949;BME280;6539;49.476;8.484;2022-12-29T11:12:57;99938.31;;;13.93;65.61
12949;BME280;6539;49.476;8.484;2022-12-29T11:15:24;99937.44;;;13.96;64.97
12949;BME280;6539;49.476;8.484;2022-12-29T11:17:57;99936.13;;;14.13;64.58
12949;BME280;6539;49.476;8.484;2022-12-29T11:20:38;99951.97;;;14.37;62.86
12949;BME280;6539;49.476;8.484;2022-12-29T11:23:37;99944.16;;;14.36;62.39
12949;BME280;6539;49.476;8.484;2022-12-29T11:26:24;99946.66;;;14.30;61.74
12949;BME280;6539;49.476;8.484;2022-12-29T11:29:21;99944.53;;;14.22;61.78
12949;BME280;6539;49.476;8.484;2022-12-29T11:31:57;99947.84;;;14.17;62.02
12949;BME280;6539;49.476;8.484;2022-12-29T11:34:31;99950.25;;;14.15;61.86
12949;BME280;6539;49.476;8.484;2022-12-29T11:37:12;99961.31;;;14.15;61.57
12949;BME280;6539;49.476;8.484;2022-12-29T11:40:06;99959.53;;;14.08;60.91
12949;BME280;6539;49.476;8.484;2022-12-29T11:42:39;99959.44;;;14.12;61.01
12949;BME280;6539;49.476;8.484;2022-12-29T11:45:17;99960.50;;;14.02;61.19
12949;BME280;6539;49.476;8.484;2022-12-29T11:48:18;99964.84;;;14.03;61.23
12949;BME280;6539;49.476;8.484;2022-12-29T11:50:54;99953.91;;;13.99;61.27
12949;BME280;6539;49.476;8.484;2022-12-29T11:53:45;99949.13;;;14.00;61.42
12949;BME280;6539;49.476;8.484;2022-12-29T11:56:39;99961.84;;;13.97;61.45
12949;BME280;6539;49.476;8.484;2022-12-29T12:01:56;99958.97;;;14.01;61.32
12949;BME280;6539;49.476;8.484;2022-12-29T12:04:29;99955.56;;;13.97;60.89
12949;BME280;6539;49.476;8.484;2022-12-29T12:07:15;99960.50;;;14.02;60.78
12949;BME280;6539;49.476;8.484;2022-12-29T12:09:57;99948.28;;;14.03;60.64
12949;BME280;6539;49.476;8.484;2022-12-29T12:12:47;99958.66;;;13.99;60.70
12949;BME280;6539;49.476;8.484;2022-12-29T12:15:27;99964.38;;;13.92;60.51
12949;BME280;6539;49.476;8.484;2022-12-29T12:18:11;99960.72;;;13.82;61.00
12949;BME280;6539;49.476;8.484;2022-12-29T12:20:54;99956.16;;;13.75;60.41
12949;BME280;6539;49.476;8.484;2022-12-29T12:23:47;99962.44;;;13.76;61.44
12949;BME280;6539;49.476;8.484;2022-12-29T12:26:26;99975.16;;;13.73;62.10
12949;BME280;6539;49.476;8.484;2022-12-29T12:34:45;99967.78;;;13.54;64.27
12949;BME280;6539;49.476;8.484;2022-12-29T12:49:07;99960.75;;;13.37;66.85
12949;BME280;6539;49.476;8.484;2022-12-29T13:00:36;99940.53;;;13.56;67.04
12949;BME280;6539;49.476;8.484;2022-12-29T13:03:49;99945.63;;;13.58;66.84
12949;BME280;6539;49.476;8.484;2022-12-29T13:09:48;99948.72;;;13.60;64.67
12949;BME280;6539;49.476;8.484;2022-12-29T13:12:40;99936.38;;;13.64;63.47
12949;BME280;6539;49.476;8.484;2022-12-29T13:15:27;99942.56;;;13.68;63.06
12949;BME280;6539;49.476;8.484;2022-12-29T13:18:22;99937.28;;;13.74;62.55
12949;BME280;6539;49.476;8.484;2022-12-29T13:26:54;99948.28;;;13.61;62.22
12949;BME280;6539;49.476;8.484;2022-12-29T13:38:24;99945.25;;;13.43;63.16
12949;BME280;6539;49.476;8.484;2022-12-29T13:41:02;99948.97;;;13.37;63.13
12949;BME280;6539;49.476;8.484;2022-12-29T13:43:34;99937.69;;;13.31;63.32
12949;BME280;6539;49.476;8.484;2022-12-29T13:46:27;99938.47;;;13.32;63.50
12949;BME280;6539;49.476;8.484;2022-12-29T13:49:02;99949.38;;;13.35;63.89
12949;BME280;6539;49.476;8.484;2022-12-29T13:51:34;99947.41;;;13.36;64.46
12949;BME280;6539;49.476;8.484;2022-12-29T13:57:08;99950.63;;;13.18;65.35
12949;BME280;6539;49.476;8.484;2022-12-29T14:00:12;99951.50;;;12.99;65.55
12949;BME280;6539;49.476;8.484;2022-12-29T14:07:47;99960.03;;;12.88;66.31
12949;BME280;6539;49.476;8.484;2022-12-29T14:10:49;99975.28;;;12.93;66.65
12949;BME280;6539;49.476;8.484;2022-12-29T14:13:22;99980.09;;;12.89;67.43
12949;BME280;6539;49.476;8.484;2022-12-29T14:15:57;99973.38;;;12.90;67.31
12949;BME280;6539;49.476;8.484;2022-12-29T14:18:25;99979.72;;;12.71;67.89
12949;BME280;6539;49.476;8.484;2022-12-29T14:23:50;99980.97;;;12.70;67.53
12949;BME280;6539;49.476;8.484;2022-12-29T14:31:55;99990.41;;;12.53;67.23
12949;BME280;6539;49.476;8.484;2022-12-29T14:37:02;100000.97;;;12.54;66.70
12949;BME280;6539;49.476;8.484;2022-12-29T14:39:44;99985.25;;;12.55;66.44
12949;BME280;6539;49.476;8.484;2022-12-29T14:45:02;99975.06;;;12.52;66.84
12949;BME280;6539;49.476;8.484;2022-12-29T14:47:37;99986.09;;;12.52;66.70
12949;BME280;6539;49.476;8.484;2022-12-29T14:53:06;99995.38;;;12.58;66.57
12949;BME280;6539;49.476;8.484;2022-12-29T14:56:00;100004.19;;;12.53;66.89
12949;BME280;6539;49.476;8.484;2022-12-29T14:58:37;100003.03;;;12.50;67.41
12949;BME280;6539;49.476;8.484;2022-12-29T15:01:38;99996.66;;;12.53;67.33
12949;BME280;6539;49.476;8.484;2022-12-29T15:04:23;100006.59;;;12.51;67.46
12949;BME280;6539;49.476;8.484;2022-12-29T15:06:52;99992.44;;;12.49;67.40
12949;BME280;6539;49.476;8.484;2022-12-29T15:09:33;99995.72;;;12.44;67.83
12949;BME280;6539;49.476;8.484;2022-12-29T15:12:18;99989.53;;;12.40;68.03
12949;BME280;6539;49.476;8.484;2022-12-29T15:14:58;99985.41;;;12.48;68.15
12949;BME280;6539;49.476;8.484;2022-12-29T15:17:30;99969.31;;;12.46;69.29
12949;BME280;6539;49.476;8.484;2022-12-29T15:19:59;99973.16;;;12.49;69.35
12949;BME280;6539;49.476;8.484;2022-12-29T15:22:25;99992.63;;;12.42;70.43
12949;BME280;6539;49.476;8.484;2022-12-29T15:24:54;99997.09;;;12.36;70.75
12949;BME280;6539;49.476;8.484;2022-12-29T15:27:27;100009.28;;;12.35;70.90
12949;BME280;6539;49.476;8.484;2022-12-29T15:30:04;100017.06;;;12.40;71.22
12949;BME280;6539;49.476;8.484;2022-12-29T15:32:43;100023.75;;;12.39;71.07
12949;BME280;6539;49.476;8.484;2022-12-29T15:35:36;100038.97;;;12.43;71.51
12949;BME280;6539;49.476;8.484;2022-12-29T15:38:29;100043.78;;;12.39;71.90
12949;BME280;6539;49.476;8.484;2022-12-29T15:41:04;100037.59;;;12.35;72.28
12949;BME280;6539;49.476;8.484;2022-12-29T15:44:15;100032.09;;;12.35;72.35
12949;BME280;6539;49.476;8.484;2022-12-29T15:46:39;100042.06;;;12.29;72.77
12949;BME280;6539;49.476;8.484;2022-12-29T15:49:08;100040.56;;;12.24;73.09
12949;BME280;6539;49.476;8.484;2022-12-29T15:51:39;100049.06;;;12.14;73.52